sensor_id;sensor_type;location;lat;lon;timestamp;P1;P2;P0
27143;PMS1003;14672;50.250;8.312;2023-12-29T00:02:04;7.75;7.75;1.00
27143;PMS1003;14672;50.250;8.312;2023-12-29T00:04:30;14.67;12.00;4.33
27143;PMS1003;14672;50.250;8.312;2023-12-29T00:06:56;9.00;9.00;3.00
27143;PMS1003;14672;50.250;8.312;2023-12-29T00:09:22;9.00;9.00;3.00
27143;PMS1003;14672;50.250;8.312;2023-12-29T00:11:48;10.33;9.33;3.00
27143;PMS1003;14672;50.250;8.312;2023-12-29T00:14:15;8.75;8.00;2.50
27143;PMS1003;14672;50.250;8.312;2023-12-29T00:16:41;10.75;10.75;3.00
27143;PMS1003;14672;50.250;8.312;2023-12-29T00:19:09;8.75;8.75;3.00
27143;PMS1003;14672;50.250;8.312;2023-12-29T00:21:36;10.00;8.50;3.00
27143;PMS1003;14672;50.250;8.312;2023-12-29T00:24:02;10.75;10.75;3.50
27143;PMS1003;14672;50.250;8.312;2023-12-29T00:26:29;9.25;8.75;3.00
27143;PMS1003;14672;50.250;8.312;2023-12-29T00:28:55;11.67;10.00;3.00
27143;PMS1003;14672;50.250;8.312;2023-12-29T00:31:20;9.00;9.00;3.00
27143;PMS1003;14672;50.250;8.312;2023-12-29T00:33:46;8.33;8.33;1.00
27143;PMS1003;14672;50.250;8.312;2023-12-29T00:36:16;10.00;10.00;3.00
27143;PMS1003;14672;50.250;8.312;2023-12-29T00:38:43;10.25;10.00;4.50
27143;PMS1003;14672;50.250;8.312;2023-12-29T00:41:11;9.75;9.75;3.00
27143;PMS1003;14672;50.250;8.312;2023-12-29T00:43:37;9.67;9.33;3.00
27143;PMS1003;14672;50.250;8.312;2023-12-29T00:46:04;12.00;12.00;5.00
27143;PMS1003;14672;50.250;8.312;2023-12-29T00:48:30;17.25;15.25;7.00
27143;PMS1003;14672;50.250;8.312;2023-12-29T00:50:57;15.50;14.50;7.00
27143;PMS1003;14672;50.250;8.312;2023-12-29T00:53:23;9.00;9.00;3.00
27143;PMS1003;14672;50.250;8.312;2023-12-29T00:55:49;8.75;8.75;3.00
27143;PMS1003;14672;50.250;8.312;2023-12-29T00:58:14;9.00;8.67;3.00
27143;PMS1003;14672;50.250;8.312;2023-12-29T01:00:40;10.00;10.00;3.00
27143;PMS1003;14672;50.250;8.312;2023-12-29T01:03:06;14.33;9.67;1.00
27143;PMS1003;14672;50.250;8.312;2023-12-29T01:05:32;9.00;9.00;3.00
27143;PMS1003;14672;50.250;8.312;2023-12-29T01:07:57;10.00;10.00;5.00
27143;PMS1003;14672;50.250;8.312;2023-12-29T01:10:23;11.33;11.33;5.00
27143;PMS1003;14672;50.250;8.312;2023-12-29T01:12:49;8.33;8.33;3.00
27143;PMS1003;14672;50.250;8.312;2023-12-29T01:15:15;9.33;9.33;3.67
27143;PMS1003;14672;50.250;8.312;2023-12-29T01:17:40;8.00;8.00;1.00
27143;PMS1003;14672;50.250;8.312;2023-12-29T01:20:06;10.00;9.00;2.33
27143;PMS1003;14672;50.250;8.312;2023-12-29T01:22:33;13.50;10.00;3.00
27143;PMS1003;14672;50.250;8.312;2023-12-29T01:24:59;12.00;9.67;3.00
27143;PMS1003;14672;50.250;8.312;2023-12-29T01:27:25;10.00;9.00;2.50
27143;PMS1003;14672;50.250;8.312;2023-12-29T01:29:51;7.50;7.50;3.00
27143;PMS1003;14672;50.250;8.312;2023-12-29T01:32:18;9.25;9.25;3.00
27143;PMS1003;14672;50.250;8.312;2023-12-29T01:34:47;9.25;8.75;3.00
27143;PMS1003;14672;50.250;8.312;2023-12-29T01:37:13;9.00;9.00;3.00
27143;PMS1003;14672;50.250;8.312;2023-12-29T01:39:39;9.00;9.00;3.00
27143;PMS1003;14672;50.250;8.312;2023-12-29T01:42:05;8.75;8.75;3.00
27143;PMS1003;14672;50.250;8.312;2023-12-29T01:44:31;10.75;10.00;3.00
27143;PMS1003;14672;50.250;8.312;2023-12-29T01:47:01;9.25;9.25;4.00
27143;PMS1003;14672;50.250;8.312;2023-12-29T01:49:27;9.25;9.25;3.00
27143;PMS1003;14672;50.250;8.312;2023-12-29T01:51:58;10.25;8.50;2.00
27143;PMS1003;14672;50.250;8.312;2023-12-29T01:54:28;11.25;9.50;3.00
27143;PMS1003;14672;50.250;8.312;2023-12-29T01:56:59;9.00;9.00;3.00
27143;PMS1003;14672;50.250;8.312;2023-12-29T01:59:27;10.50;10.50;2.50
27143;PMS1003;14672;50.250;8.312;2023-12-29T02:01:54;9.50;9.25;1.00
27143;PMS1003;14672;50.250;8.312;2023-12-29T02:04:23;9.50;9.50;3.00
27143;PMS1003;14672;50.250;8.312;2023-12-29T02:06:50;9.50;9.25;2.00
27143;PMS1003;14672;50.250;8.312;2023-12-29T02:09:17;9.50;9.50;2.50
27143;PMS1003;14672;50.250;8.312;2023-12-29T02:11:44;8.50;8.50;2.00
27143;PMS1003;14672;50.250;8.312;2023-12-29T02:14:11;7.00;7.00;1.50
27143;PMS1003;14672;50.250;8.312;2023-12-29T02:16:42;11.50;10.25;3.00
27143;PMS1003;14672;50.250;8.312;2023-12-29T02:22:09;9.25;9.25;3.50
27143;PMS1003;14672;50.250;8.312;2023-12-29T02:24:36;9.25;9.00;3.00
27143;PMS1003;14672;50.250;8.312;2023-12-29T02:33:09;10.00;8.75;1.00
27143;PMS1003;14672;50.250;8.312;2023-12-29T02:35:41;8.75;8.75;2.50
27143;PMS1003;14672;50.250;8.312;2023-12-29T02:38:09;9.50;8.00;3.00
27143;PMS1003;14672;50.250;8.312;2023-12-29T02:40:36;15.00;12.00;3.00
27143;PMS1003;14672;50.250;8.312;2023-12-29T02:43:02;8.00;8.00;3.00
27143;PMS1003;14672;50.250;8.312;2023-12-29T02:45:28;12.00;12.00;5.00
27143;PMS1003;14672;50.250;8.312;2023-12-29T02:47:54;11.67;10.00;3.67
27143;PMS1003;14672;50.250;8.312;2023-12-29T02:50:20;9.67;9.67;3.00
27143;PMS1003;14672;50.250;8.312;2023-12-29T02:52:49;10.00;8.25;3.00
27143;PMS1003;14672;50.250;8.312;2023-12-29T02:55:14;9.67;8.00;1.00
27143;PMS1003;14672;50.250;8.312;2023-12-29T02:57:40;9.00;9.00;3.00
27143;PMS1003;14672;50.250;8.312;2023-12-29T03:00:07;12.00;11.25;4.00
27143;PMS1003;14672;50.250;8.312;2023-12-29T03:02:33;13.50;12.00;6.00
27143;PMS1003;14672;50.250;8.312;2023-12-29T03:04:59;9.75;8.00;3.00
27143;PMS1003;14672;50.250;8.312;2023-12-29T03:07:25;9.50;9.50;3.00
27143;PMS1003;14672;50.250;8.312;2023-12-29T03:09:51;14.00;11.33;3.67
27143;PMS1003;14672;50.250;8.312;2023-12-29T03:12:17;8.00;8.00;3.00
27143;PMS1003;14672;50.250;8.312;2023-12-29T03:14:43;10.00;10.00;3.00
27143;PMS1003;14672;50.250;8.312;2023-12-29T03:17:10;10.00;10.00;3.00
27143;PMS1003;14672;50.250;8.312;2023-12-29T03:19:36;10.75;8.75;3.00
27143;PMS1003;14672;50.250;8.312;2023-12-29T03:22:02;10.00;8.33;3.00
27143;PMS1003;14672;50.250;8.312;2023-12-29T03:24:28;10.33;9.67;4.33
27143;PMS1003;14672;50.250;8.312;2023-12-29T03:26:55;9.50;8.00;1.00
27143;PMS1003;14672;50.250;8.312;2023-12-29T03:29:20;10.67;9.67;3.00
27143;PMS1003;14672;50.250;8.312;2023-12-29T03:31:46;12.00;12.00;5.00
27143;PMS1003;14672;50.250;8.312;2023-12-29T03:34:12;8.33;8.33;3.00
27143;PMS1003;14672;50.250;8.312;2023-12-29T03:36:37;10.00;8.67;3.00
27143;PMS1003;14672;50.250;8.312;2023-12-29T03:39:06;12.00;10.00;5.00
27143;PMS1003;14672;50.250;8.312;2023-12-29T03:41:32;10.33;8.00;3.00
27143;PMS1003;14672;50.250;8.312;2023-12-29T03:43:58;8.00;8.00;3.00
27143;PMS1003;14672;50.250;8.312;2023-12-29T03:46:24;10.50;10.50;4.00
27143;PMS1003;14672;50.250;8.312;2023-12-29T03:48:50;7.75;7.75;3.00
27143;PMS1003;14672;50.250;8.312;2023-12-29T03:51:18;10.00;8.75;3.00
27143;PMS1003;14672;50.250;8.312;2023-12-29T03:53:44;10.00;10.00;4.50
27143;PMS1003;14672;50.250;8.312;2023-12-29T03:56:17;10.00;10.00;5.00
27143;PMS1003;14672;50.250;8.312;2023-12-29T03:58:44;13.00;10.00;3.00
27143;PMS1003;14672;50.250;8.312;2023-12-29T04:01:11;8.75;8.75;3.00
27143;PMS1003;14672;50.250;8.312;2023-12-29T04:03:38;7.00;7.00;2.00
27143;PMS1003;14672;50.250;8.312;2023-12-29T04:06:04;9.50;9.50;4.00
27143;PMS1003;14672;50.250;8.312;2023-12-29T04:08:31;9.25;9.25;3.00
27143;PMS1003;14672;50.250;8.312;2023-12-29T04:10:57;10.00;10.00;3.00
27143;PMS1003;14672;50.250;8.312;2023-12-29T04:13:23;12.00;10.00;3.00
27143;PMS1003;14672;50.250;8.312;2023-12-29T04:15:49;11.33;9.33;3.00
27143;PMS1003;14672;50.250;8.312;2023-12-29T04:18:14;10.00;10.00;4.33
27143;PMS1003;14672;50.250;8.312;2023-12-29T04:20:40;12.00;10.00;5.00
27143;PMS1003;14672;50.250;8.312;2023-12-29T04:23:06;10.00;10.00;1.00
27143;PMS1003;14672;50.250;8.312;2023-12-29T04:25:32;10.00;9.50;3.00
27143;PMS1003;14672;50.250;8.312;2023-12-29T04:27:58;12.00;10.00;3.67
27143;PMS1003;14672;50.250;8.312;2023-12-29T04:30:24;11.67;10.33;4.33
27143;PMS1003;14672;50.250;8.312;2023-12-29T04:32:50;9.67;9.67;4.33
27143;PMS1003;14672;50.250;8.312;2023-12-29T04:35:18;8.75;8.75;3.00
27143;PMS1003;14672;50.250;8.312;2023-12-29T04:37:44;9.33;9.33;3.00
27143;PMS1003;14672;50.250;8.312;2023-12-29T04:40:14;11.25;11.25;5.00
27143;PMS1003;14672;50.250;8.312;2023-12-29T04:42:40;10.00;9.00;3.00
27143;PMS1003;14672;50.250;8.312;2023-12-29T04:45:06;10.00;10.00;3.00
27143;PMS1003;14672;50.250;8.312;2023-12-29T04:47:32;8.75;8.50;3.00
27143;PMS1003;14672;50.250;8.312;2023-12-29T04:49:58;9.00;9.00;2.33
27143;PMS1003;14672;50.250;8.312;2023-12-29T04:52:23;8.00;8.00;1.67
27143;PMS1003;14672;50.250;8.312;2023-12-29T04:54:49;12.00;9.00;3.00
27143;PMS1003;14672;50.250;8.312;2023-12-29T04:57:15;10.00;9.00;3.00
27143;PMS1003;14672;50.250;8.312;2023-12-29T04:59:41;10.00;10.00;3.67
27143;PMS1003;14672;50.250;8.312;2023-12-29T05:02:06;10.67;10.67;3.00
27143;PMS1003;14672;50.250;8.312;2023-12-29T05:04:32;9.00;9.00;1.00
27143;PMS1003;14672;50.250;8.312;2023-12-29T05:06:58;10.00;10.00;3.00
27143;PMS1003;14672;50.250;8.312;2023-12-29T05:09:24;9.33;9.33;3.00
27143;PMS1003;14672;50.250;8.312;2023-12-29T05:11:49;9.33;9.33;3.67
27143;PMS1003;14672;50.250;8.312;2023-12-29T05:14:15;11.00;9.33;3.00
27143;PMS1003;14672;50.250;8.312;2023-12-29T05:16:41;10.00;9.33;3.00
27143;PMS1003;14672;50.250;8.312;2023-12-29T05:19:07;8.75;8.75;3.00
27143;PMS1003;14672;50.250;8.312;2023-12-29T05:21:33;12.00;10.00;3.00
27143;PMS1003;14672;50.250;8.312;2023-12-29T05:23:59;9.00;9.00;3.00
27143;PMS1003;14672;50.250;8.312;2023-12-29T05:26:28;10.25;8.50;2.00
27143;PMS1003;14672;50.250;8.312;2023-12-29T05:28:53;9.33;9.33;3.00
27143;PMS1003;14672;50.250;8.312;2023-12-29T05:31:19;9.33;9.33;3.00
27143;PMS1003;14672;50.250;8.312;2023-12-29T05:33:45;9.00;9.00;2.33
27143;PMS1003;14672;50.250;8.312;2023-12-29T05:36:11;9.00;9.00;1.00
27143;PMS1003;14672;50.250;8.312;2023-12-29T05:38:37;7.00;7.00;1.00
27143;PMS1003;14672;50.250;8.312;2023-12-29T05:41:03;12.75;10.75;3.00
27143;PMS1003;14672;50.250;8.312;2023-12-29T05:43:30;10.00;9.00;3.00
27143;PMS1003;14672;50.250;8.312;2023-12-29T05:46:00;10.00;9.75;4.00
27143;PMS1003;14672;50.250;8.312;2023-12-29T05:48:27;10.75;10.75;5.00
27143;PMS1003;14672;50.250;8.312;2023-12-29T05:50:52;11.50;10.00;4.50
27143;PMS1003;14672;50.250;8.312;2023-12-29T05:53:18;7.50;7.50;3.00
27143;PMS1003;14672;50.250;8.312;2023-12-29T05:55:44;9.67;9.00;3.00
27143;PMS1003;14672;50.250;8.312;2023-12-29T05:58:11;8.75;8.75;1.00
27143;PMS1003;14672;50.250;8.312;2023-12-29T06:00:37;10.25;7.50;1.50
27143;PMS1003;14672;50.250;8.312;2023-12-29T06:03:04;14.50;10.00;3.00
27143;PMS1003;14672;50.250;8.312;2023-12-29T06:05:31;9.25;9.25;3.00
27143;PMS1003;14672;50.250;8.312;2023-12-29T06:07:57;8.75;8.75;4.50
27143;PMS1003;14672;50.250;8.312;2023-12-29T06:10:23;7.00;7.00;1.00
27143;PMS1003;14672;50.250;8.312;2023-12-29T06:12:49;8.00;8.00;1.67
27143;PMS1003;14672;50.250;8.312;2023-12-29T06:15:15;7.67;7.00;1.00
27143;PMS1003;14672;50.250;8.312;2023-12-29T06:17:41;10.33;8.67;3.67
27143;PMS1003;14672;50.250;8.312;2023-12-29T06:20:07;11.50;9.50;2.00
27143;PMS1003;14672;50.250;8.312;2023-12-29T06:22:38;8.00;8.00;3.00
27143;PMS1003;14672;50.250;8.312;2023-12-29T06:25:12;7.00;7.00;1.00
27143;PMS1003;14672;50.250;8.312;2023-12-29T06:27:38;14.00;10.25;3.00
27143;PMS1003;14672;50.250;8.312;2023-12-29T06:30:08;7.75;7.00;2.00
27143;PMS1003;14672;50.250;8.312;2023-12-29T06:32:38;10.00;9.00;3.00
27143;PMS1003;14672;50.250;8.312;2023-12-29T06:35:05;12.00;12.00;3.00
27143;PMS1003;14672;50.250;8.312;2023-12-29T06:37:31;9.00;9.00;3.00
27143;PMS1003;14672;50.250;8.312;2023-12-29T06:39:58;10.00;9.75;3.00
27143;PMS1003;14672;50.250;8.312;2023-12-29T06:42:24;7.75;7.25;2.50
27143;PMS1003;14672;50.250;8.312;2023-12-29T06:44:50;9.25;9.25;2.50
27143;PMS1003;14672;50.250;8.312;2023-12-29T06:47:16;11.00;8.33;2.33
27143;PMS1003;14672;50.250;8.312;2023-12-29T06:49:41;8.33;8.33;3.00
27143;PMS1003;14672;50.250;8.312;2023-12-29T06:52:07;9.00;9.00;1.67
27143;PMS1003;14672;50.250;8.312;2023-12-29T06:54:33;10.00;10.00;3.00
27143;PMS1003;14672;50.250;8.312;2023-12-29T06:57:00;10.00;10.00;1.00
27143;PMS1003;14672;50.250;8.312;2023-12-29T06:59:26;8.00;7.00;1.00
27143;PMS1003;14672;50.250;8.312;2023-12-29T07:01:52;8.67;8.67;1.00
27143;PMS1003;14672;50.250;8.312;2023-12-29T07:04:18;8.00;7.33;1.00
27143;PMS1003;14672;50.250;8.312;2023-12-29T07:06:43;12.00;12.00;3.00
27143;PMS1003;14672;50.250;8.312;2023-12-29T07:09:09;9.33;9.33;3.00
27143;PMS1003;14672;50.250;8.312;2023-12-29T07:11:35;7.50;7.00;2.00
27143;PMS1003;14672;50.250;8.312;2023-12-29T07:14:01;8.00;8.00;3.00
27143;PMS1003;14672;50.250;8.312;2023-12-29T07:16:27;7.25;7.25;2.00
27143;PMS1003;14672;50.250;8.312;2023-12-29T07:18:54;12.25;10.50;3.00
27143;PMS1003;14672;50.250;8.312;2023-12-29T07:21:19;8.33;8.33;1.00
27143;PMS1003;14672;50.250;8.312;2023-12-29T07:23:45;10.00;10.00;3.67
27143;PMS1003;14672;50.250;8.312;2023-12-29T07:26:11;10.00;9.33;1.00
27143;PMS1003;14672;50.250;8.312;2023-12-29T07:28:37;7.00;7.00;1.00
27143;PMS1003;14672;50.250;8.312;2023-12-29T07:31:03;10.00;8.00;3.00
27143;PMS1003;14672;50.250;8.312;2023-12-29T07:33:29;8.33;8.00;3.00
27143;PMS1003;14672;50.250;8.312;2023-12-29T07:35:55;8.25;7.75;1.50
27143;PMS1003;14672;50.250;8.312;2023-12-29T07:38:21;7.33;7.33;1.00
27143;PMS1003;14672;50.250;8.312;2023-12-29T07:40:48;9.50;8.00;1.50
27143;PMS1003;14672;50.250;8.312;2023-12-29T07:43:14;10.00;9.00;3.00
27143;PMS1003;14672;50.250;8.312;2023-12-29T07:45:39;8.75;7.75;1.50
27143;PMS1003;14672;50.250;8.312;2023-12-29T07:48:05;14.67;12.67;5.00
27143;PMS1003;14672;50.250;8.312;2023-12-29T07:50:31;10.50;10.00;4.00
27143;PMS1003;14672;50.250;8.312;2023-12-29T07:52:58;14.50;14.50;8.75
27143;PMS1003;14672;50.250;8.312;2023-12-29T07:55:28;12.50;12.50;6.75
27143;PMS1003;14672;50.250;8.312;2023-12-29T07:57:57;12.50;12.50;6.25
27143;PMS1003;14672;50.250;8.312;2023-12-29T08:00:23;11.33;11.33;5.00
27143;PMS1003;14672;50.250;8.312;2023-12-29T08:02:49;11.50;11.50;5.50
27143;PMS1003;14672;50.250;8.312;2023-12-29T08:05:15;9.25;9.25;3.00
27143;PMS1003;14672;50.250;8.312;2023-12-29T08:07:42;12.00;11.50;5.00
27143;PMS1003;14672;50.250;8.312;2023-12-29T08:10:08;11.50;10.00;4.00
27143;PMS1003;14672;50.250;8.312;2023-12-29T08:12:34;10.00;10.00;5.00
27143;PMS1003;14672;50.250;8.312;2023-12-29T08:15:01;11.50;11.50;5.50
27143;PMS1003;14672;50.250;8.312;2023-12-29T08:17:28;12.00;11.00;5.00
27143;PMS1003;14672;50.250;8.312;2023-12-29T08:19:54;12.00;12.00;6.25
27143;PMS1003;14672;50.250;8.312;2023-12-29T08:22:20;9.67;9.67;3.00
27143;PMS1003;14672;50.250;8.312;2023-12-29T08:24:46;8.25;8.25;3.50
27143;PMS1003;14672;50.250;8.312;2023-12-29T08:27:12;12.00;12.00;5.00
27143;PMS1003;14672;50.250;8.312;2023-12-29T08:29:38;11.50;10.00;5.00
27143;PMS1003;14672;50.250;8.312;2023-12-29T08:32:05;10.00;10.00;5.00
27143;PMS1003;14672;50.250;8.312;2023-12-29T08:34:32;8.00;8.00;3.00
27143;PMS1003;14672;50.250;8.312;2023-12-29T08:36:59;10.50;8.50;5.00
27143;PMS1003;14672;50.250;8.312;2023-12-29T08:39:25;8.00;8.00;1.00
27143;PMS1003;14672;50.250;8.312;2023-12-29T08:41:51;10.00;10.00;3.00
27143;PMS1003;14672;50.250;8.312;2023-12-29T08:44:16;8.00;8.00;4.33
27143;PMS1003;14672;50.250;8.312;2023-12-29T08:46:42;9.33;8.00;3.00
27143;PMS1003;14672;50.250;8.312;2023-12-29T08:49:08;8.67;8.67;3.00
27143;PMS1003;14672;50.250;8.312;2023-12-29T08:51:34;8.00;8.00;3.00
27143;PMS1003;14672;50.250;8.312;2023-12-29T08:53:59;8.00;8.00;3.00
27143;PMS1003;14672;50.250;8.312;2023-12-29T08:56:25;12.67;12.00;3.00
27143;PMS1003;14672;50.250;8.312;2023-12-29T08:58:51;8.67;8.00;3.00
27143;PMS1003;14672;50.250;8.312;2023-12-29T09:01:17;10.50;8.00;1.00
27143;PMS1003;14672;50.250;8.312;2023-12-29T09:03:44;8.50;8.00;2.50
27143;PMS1003;14672;50.250;8.312;2023-12-29T09:06:10;10.67;10.67;3.00
27143;PMS1003;14672;50.250;8.312;2023-12-29T09:08:36;10.00;9.00;3.00
27143;PMS1003;14672;50.250;8.312;2023-12-29T09:11:03;9.00;8.00;3.00
27143;PMS1003;14672;50.250;8.312;2023-12-29T09:13:29;10.00;9.50;3.00
27143;PMS1003;14672;50.250;8.312;2023-12-29T09:15:55;12.00;10.00;5.00
27143;PMS1003;14672;50.250;8.312;2023-12-29T09:18:22;10.00;10.00;3.00
27143;PMS1003;14672;50.250;8.312;2023-12-29T09:20:48;12.67;11.33;5.00
27143;PMS1003;14672;50.250;8.312;2023-12-29T09:23:14;8.00;8.00;1.00
27143;PMS1003;14672;50.250;8.312;2023-12-29T09:25:40;6.67;6.67;3.00
27143;PMS1003;14672;50.250;8.312;2023-12-29T09:28:06;14.25;13.50;5.00
27143;PMS1003;14672;50.250;8.312;2023-12-29T09:30:32;11.00;11.00;5.00
27143;PMS1003;14672;50.250;8.312;2023-12-29T09:32:58;12.33;12.00;5.00
27143;PMS1003;14672;50.250;8.312;2023-12-29T09:35:25;12.25;12.25;4.50
27143;PMS1003;14672;50.250;8.312;2023-12-29T09:37:51;10.00;10.00;3.00
27143;PMS1003;14672;50.250;8.312;2023-12-29T09:40:17;7.00;7.00;3.00
27143;PMS1003;14672;50.250;8.312;2023-12-29T09:42:43;10.00;10.00;3.00
27143;PMS1003;14672;50.250;8.312;2023-12-29T09:45:10;10.75;10.00;3.00
27143;PMS1003;14672;50.250;8.312;2023-12-29T09:47:40;15.25;12.75;5.25
27143;PMS1003;14672;50.250;8.312;2023-12-29T09:50:09;8.00;8.00;4.00
27143;PMS1003;14672;50.250;8.312;2023-12-29T09:52:38;10.00;10.00;3.00
27143;PMS1003;14672;50.250;8.312;2023-12-29T09:55:07;10.25;10.00;5.50
27143;PMS1003;14672;50.250;8.312;2023-12-29T09:57:36;12.25;10.00;4.00
27143;PMS1003;14672;50.250;8.312;2023-12-29T10:00:03;9.00;9.00;3.00
27143;PMS1003;14672;50.250;8.312;2023-12-29T10:02:30;11.00;11.00;6.00
27143;PMS1003;14672;50.250;8.312;2023-12-29T10:04:57;10.50;10.00;5.25
27143;PMS1003;14672;50.250;8.312;2023-12-29T10:07:26;8.00;8.00;3.00
27143;PMS1003;14672;50.250;8.312;2023-12-29T10:09:56;10.00;10.00;6.00
27143;PMS1003;14672;50.250;8.312;2023-12-29T10:12:25;10.25;9.00;3.00
27143;PMS1003;14672;50.250;8.312;2023-12-29T10:14:57;11.00;11.00;5.00
27143;PMS1003;14672;50.250;8.312;2023-12-29T10:23:50;8.00;7.50;3.00
27143;PMS1003;14672;50.250;8.312;2023-12-29T10:26:34;10.00;10.00;4.50
27143;PMS1003;14672;50.250;8.312;2023-12-29T10:29:01;9.00;8.50;3.00
27143;PMS1003;14672;50.250;8.312;2023-12-29T10:31:27;8.67;8.67;5.00
27143;PMS1003;14672;50.250;8.312;2023-12-29T10:33:53;6.00;6.00;3.00
27143;PMS1003;14672;50.250;8.312;2023-12-29T10:36:57;8.25;8.25;5.00
27143;PMS1003;14672;50.250;8.312;2023-12-29T10:39:37;10.00;10.00;5.00
27143;PMS1003;14672;50.250;8.312;2023-12-29T10:42:03;10.67;10.67;5.00
27143;PMS1003;14672;50.250;8.312;2023-12-29T10:44:33;8.00;8.00;3.00
27143;PMS1003;14672;50.250;8.312;2023-12-29T10:47:07;8.00;8.00;4.50
27143;PMS1003;14672;50.250;8.312;2023-12-29T10:49:37;11.00;11.00;5.00
27143;PMS1003;14672;50.250;8.312;2023-12-29T10:52:12;8.00;8.00;3.00
27143;PMS1003;14672;50.250;8.312;2023-12-29T10:54:41;10.00;10.00;5.50
27143;PMS1003;14672;50.250;8.312;2023-12-29T10:57:09;10.00;10.00;5.00
27143;PMS1003;14672;50.250;8.312;2023-12-29T10:59:37;9.50;9.50;5.00
27143;PMS1003;14672;50.250;8.312;2023-12-29T11:02:07;9.50;8.00;3.00
27143;PMS1003;14672;50.250;8.312;2023-12-29T11:04:39;8.00;8.00;5.00
27143;PMS1003;14672;50.250;8.312;2023-12-29T11:07:06;11.25;11.25;3.50
27143;PMS1003;14672;50.250;8.312;2023-12-29T11:09:33;8.00;8.00;2.50
27143;PMS1003;14672;50.250;8.312;2023-12-29T11:12:03;10.25;10.00;3.50
27143;PMS1003;14672;50.250;8.312;2023-12-29T11:14:31;6.75;6.75;1.50
27143;PMS1003;14672;50.250;8.312;2023-12-29T11:16:57;8.50;7.50;4.50
27143;PMS1003;14672;50.250;8.312;2023-12-29T11:19:25;10.00;10.00;5.50
27143;PMS1003;14672;50.250;8.312;2023-12-29T11:21:52;9.50;8.00;3.00
27143;PMS1003;14672;50.250;8.312;2023-12-29T11:24:20;10.00;7.00;1.50
27143;PMS1003;14672;50.250;8.312;2023-12-29T11:26:50;8.00;8.00;4.00
27143;PMS1003;14672;50.250;8.312;2023-12-29T11:29:16;10.67;8.00;2.33
27143;PMS1003;14672;50.250;8.312;2023-12-29T11:31:43;7.25;7.25;3.00
27143;PMS1003;14672;50.250;8.312;2023-12-29T11:34:35;6.75;6.75;3.00
27143;PMS1003;14672;50.250;8.312;2023-12-29T11:40:21;8.00;8.00;3.00
27143;PMS1003;14672;50.250;8.312;2023-12-29T11:43:14;5.50;5.50;1.00
27143;PMS1003;14672;50.250;8.312;2023-12-29T11:45:43;5.75;5.75;1.00
27143;PMS1003;14672;50.250;8.312;2023-12-29T11:48:10;9.50;8.00;2.50
27143;PMS1003;14672;50.250;8.312;2023-12-29T11:50:39;5.75;5.75;2.00
27143;PMS1003;14672;50.250;8.312;2023-12-29T11:53:06;5.75;5.75;2.50
27143;PMS1003;14672;50.250;8.312;2023-12-29T11:55:37;6.00;5.75;1.00
27143;PMS1003;14672;50.250;8.312;2023-12-29T11:58:04;10.00;10.00;4.50
27143;PMS1003;14672;50.250;8.312;2023-12-29T12:00:53;5.50;5.50;2.00
27143;PMS1003;14672;50.250;8.312;2023-12-29T12:03:24;5.50;5.50;1.00
27143;PMS1003;14672;50.250;8.312;2023-12-29T12:05:53;5.00;5.00;1.00
27143;PMS1003;14672;50.250;8.312;2023-12-29T12:08:32;5.25;5.25;1.00
27143;PMS1003;14672;50.250;8.312;2023-12-29T12:13:55;7.25;7.25;3.00
27143;PMS1003;14672;50.250;8.312;2023-12-29T12:19:14;8.00;8.00;3.00
27143;PMS1003;14672;50.250;8.312;2023-12-29T12:21:42;8.00;7.00;1.00
27143;PMS1003;14672;50.250;8.312;2023-12-29T12:24:13;13.00;10.50;5.00
27143;PMS1003;14672;50.250;8.312;2023-12-29T12:26:43;7.50;6.00;3.00
27143;PMS1003;14672;50.250;8.312;2023-12-29T12:29:09;6.00;6.00;3.00
27143;PMS1003;14672;50.250;8.312;2023-12-29T12:31:34;8.00;8.00;1.00
27143;PMS1003;14672;50.250;8.312;2023-12-29T12:34:00;6.00;6.00;3.00
27143;PMS1003;14672;50.250;8.312;2023-12-29T12:36:26;5.50;5.50;2.00
27143;PMS1003;14672;50.250;8.312;2023-12-29T12:38:53;6.00;6.00;3.00
27143;PMS1003;14672;50.250;8.312;2023-12-29T12:41:24;10.00;6.00;2.00
27143;PMS1003;14672;50.250;8.312;2023-12-29T12:44:25;6.50;6.50;3.00
27143;PMS1003;14672;50.250;8.312;2023-12-29T12:49:22;8.00;7.50;2.50
27143;PMS1003;14672;50.250;8.312;2023-12-29T12:51:51;9.00;8.00;2.50
27143;PMS1003;14672;50.250;8.312;2023-12-29T12:54:19;10.00;9.50;3.00
27143;PMS1003;14672;50.250;8.312;2023-12-29T12:56:45;6.00;6.00;2.00
27143;PMS1003;14672;50.250;8.312;2023-12-29T12:59:12;13.00;11.50;6.00
27143;PMS1003;14672;50.250;8.312;2023-12-29T13:01:38;62.00;50.00;25.33
27143;PMS1003;14672;50.250;8.312;2023-12-29T13:04:05;21.00;21.00;11.75
27143;PMS1003;14672;50.250;8.312;2023-12-29T13:06:32;29.00;27.50;15.00
27143;PMS1003;14672;50.250;8.312;2023-12-29T13:08:59;37.50;31.25;14.75
27143;PMS1003;14672;50.250;8.312;2023-12-29T13:11:33;68.75;51.50;25.00
27143;PMS1003;14672;50.250;8.312;2023-12-29T13:13:59;54.00;44.67;20.00
27143;PMS1003;14672;50.250;8.312;2023-12-29T13:16:32;28.50;28.00;15.75
27143;PMS1003;14672;50.250;8.312;2023-12-29T13:19:19;36.50;33.75;18.75
27143;PMS1003;14672;50.250;8.312;2023-12-29T13:21:50;9.00;9.00;4.00
27143;PMS1003;14672;50.250;8.312;2023-12-29T13:24:23;8.50;8.50;3.50
27143;PMS1003;14672;50.250;8.312;2023-12-29T13:26:50;15.50;12.75;5.00
27143;PMS1003;14672;50.250;8.312;2023-12-29T13:29:24;8.00;8.00;3.50
27143;PMS1003;14672;50.250;8.312;2023-12-29T13:31:52;8.50;8.50;3.00
27143;PMS1003;14672;50.250;8.312;2023-12-29T13:34:34;6.50;6.50;1.50
27143;PMS1003;14672;50.250;8.312;2023-12-29T13:37:34;6.00;6.00;1.00
27143;PMS1003;14672;50.250;8.312;2023-12-29T13:43:35;5.00;5.00;1.00
27143;PMS1003;14672;50.250;8.312;2023-12-29T13:46:07;8.00;6.50;2.00
27143;PMS1003;14672;50.250;8.312;2023-12-29T13:48:36;8.00;8.00;3.00
27143;PMS1003;14672;50.250;8.312;2023-12-29T13:51:03;6.50;6.50;2.50
27143;PMS1003;14672;50.250;8.312;2023-12-29T13:53:29;6.00;6.00;1.00
27143;PMS1003;14672;50.250;8.312;2023-12-29T13:56:08;5.00;5.00;1.00
27143;PMS1003;14672;50.250;8.312;2023-12-29T13:58:35;8.00;8.00;1.00
27143;PMS1003;14672;50.250;8.312;2023-12-29T14:01:01;7.00;7.00;3.00
27143;PMS1003;14672;50.250;8.312;2023-12-29T14:03:54;8.00;8.00;3.00
27143;PMS1003;14672;50.250;8.312;2023-12-29T14:06:28;6.00;6.00;1.00
27143;PMS1003;14672;50.250;8.312;2023-12-29T14:09:01;5.50;5.50;1.00
27143;PMS1003;14672;50.250;8.312;2023-12-29T14:11:28;6.00;6.00;1.00
27143;PMS1003;14672;50.250;8.312;2023-12-29T14:13:56;23.25;23.25;11.00
27143;PMS1003;14672;50.250;8.312;2023-12-29T14:16:21;13.00;13.00;5.00
27143;PMS1003;14672;50.250;8.312;2023-12-29T14:18:52;10.50;10.50;3.00
27143;PMS1003;14672;50.250;8.312;2023-12-29T14:21:23;11.75;11.25;5.25
27143;PMS1003;14672;50.250;8.312;2023-12-29T14:26:31;8.50;8.50;3.00
27143;PMS1003;14672;50.250;8.312;2023-12-29T14:29:04;6.67;6.67;3.00
27143;PMS1003;14672;50.250;8.312;2023-12-29T14:31:35;5.75;5.75;1.50
27143;PMS1003;14672;50.250;8.312;2023-12-29T14:34:03;6.00;6.00;1.00
27143;PMS1003;14672;50.250;8.312;2023-12-29T14:36:33;10.00;8.00;2.00
27143;PMS1003;14672;50.250;8.312;2023-12-29T14:39:00;6.00;6.00;1.00
27143;PMS1003;14672;50.250;8.312;2023-12-29T14:41:27;7.50;7.50;1.00
27143;PMS1003;14672;50.250;8.312;2023-12-29T14:43:54;5.50;5.50;1.00
27143;PMS1003;14672;50.250;8.312;2023-12-29T14:46:20;7.00;6.00;1.00
27143;PMS1003;14672;50.250;8.312;2023-12-29T14:48:46;6.00;6.00;2.50